sensor_id;sensor_type;location;lat;lon;timestamp;P1;durP1;ratioP1;P2;durP2;ratioP2
3726;SDS011;1879;45.876;12.300;2023-04-03T00:01:37;9.90;;;9.00;;
3726;SDS011;1879;45.876;12.300;2023-04-03T00:04:07;10.40;;;9.30;;
3726;SDS011;1879;45.876;12.300;2023-04-03T00:06:36;9.63;;;8.73;;
3726;SDS011;1879;45.876;12.300;2023-04-03T00:09:04;10.30;;;9.30;;
3726;SDS011;1879;45.876;12.300;2023-04-03T00:11:32;9.77;;;8.77;;
3726;SDS011;1879;45.876;12.300;2023-04-03T00:14:00;11.10;;;8.70;;
3726;SDS011;1879;45.876;12.300;2023-04-03T00:16:30;10.13;;;9.13;;
3726;SDS011;1879;45.876;12.300;2023-04-03T00:19:00;11.20;;;10.07;;
3726;SDS011;1879;45.876;12.300;2023-04-03T00:21:32;11.13;;;10.07;;
3726;SDS011;1879;45.876;12.300;2023-04-03T00:24:01;11.30;;;10.13;;
3726;SDS011;1879;45.876;12.300;2023-04-03T00:26:30;10.23;;;9.23;;
3726;SDS011;1879;45.876;12.300;2023-04-03T00:28:58;9.37;;;8.47;;
3726;SDS011;1879;45.876;12.300;2023-04-03T00:31:27;9.80;;;8.80;;
3726;SDS011;1879;45.876;12.300;2023-04-03T00:33:55;10.33;;;9.33;;
3726;SDS011;1879;45.876;12.300;2023-04-03T00:36:26;9.70;;;8.77;;
3726;SDS011;1879;45.876;12.300;2023-04-03T00:38:55;10.30;;;9.27;;
3726;SDS011;1879;45.876;12.300;2023-04-03T00:41:23;11.27;;;9.93;;
3726;SDS011;1879;45.876;12.300;2023-04-03T00:43:52;10.93;;;9.73;;
3726;SDS011;1879;45.876;12.300;2023-04-03T00:46:20;10.50;;;9.30;;
3726;SDS011;1879;45.876;12.300;2023-04-03T00:48:49;10.85;;;9.75;;
3726;SDS011;1879;45.876;12.300;2023-04-03T00:51:19;10.73;;;9.60;;
3726;SDS011;1879;45.876;12.300;2023-04-03T00:53:53;10.73;;;9.70;;
3726;SDS011;1879;45.876;12.300;2023-04-03T00:56:25;11.20;;;10.20;;
3726;SDS011;1879;45.876;12.300;2023-04-03T00:58:57;9.93;;;9.10;;
3726;SDS011;1879;45.876;12.300;2023-04-03T01:01:28;9.10;;;8.20;;
3726;SDS011;1879;45.876;12.300;2023-04-03T01:03:58;10.47;;;9.47;;
3726;SDS011;1879;45.876;12.300;2023-04-03T01:06:29;10.47;;;9.47;;
3726;SDS011;1879;45.876;12.300;2023-04-03T01:09:03;11.13;;;10.10;;
3726;SDS011;1879;45.876;12.300;2023-04-03T01:11:32;12.03;;;9.80;;
3726;SDS011;1879;45.876;12.300;2023-04-03T01:14:01;10.40;;;9.50;;
3726;SDS011;1879;45.876;12.300;2023-04-03T01:16:31;11.13;;;9.27;;
3726;SDS011;1879;45.876;12.300;2023-04-03T01:19:00;9.70;;;8.70;;
3726;SDS011;1879;45.876;12.300;2023-04-03T01:21:53;8.55;;;7.55;;
3726;SDS011;1879;45.876;12.300;2023-04-03T01:24:34;9.80;;;7.50;;
3726;SDS011;1879;45.876;12.300;2023-04-03T01:27:05;12.67;;;8.53;;
3726;SDS011;1879;45.876;12.300;2023-04-03T01:29:38;8.27;;;7.40;;
3726;SDS011;1879;45.876;12.300;2023-04-03T01:32:12;8.80;;;7.90;;
3726;SDS011;1879;45.876;12.300;2023-04-03T01:34:40;8.40;;;7.60;;
3726;SDS011;1879;45.876;12.300;2023-04-03T01:37:08;11.53;;;8.33;;
3726;SDS011;1879;45.876;12.300;2023-04-03T01:39:37;8.88;;;7.82;;
3726;SDS011;1879;45.876;12.300;2023-04-03T01:42:06;8.70;;;7.70;;
3726;SDS011;1879;45.876;12.300;2023-04-03T01:44:36;8.63;;;7.83;;
3726;SDS011;1879;45.876;12.300;2023-04-03T01:47:06;8.53;;;7.63;;
3726;SDS011;1879;45.876;12.300;2023-04-03T01:49:37;8.63;;;7.67;;
3726;SDS011;1879;45.876;12.300;2023-04-03T01:52:06;8.53;;;7.70;;
3726;SDS011;1879;45.876;12.300;2023-04-03T01:54:34;9.97;;;8.30;;
3726;SDS011;1879;45.876;12.300;2023-04-03T01:57:03;8.93;;;7.83;;
3726;SDS011;1879;45.876;12.300;2023-04-03T01:59:34;11.23;;;7.80;;
3726;SDS011;1879;45.876;12.300;2023-04-03T02:02:02;9.30;;;7.87;;
3726;SDS011;1879;45.876;12.300;2023-04-03T02:04:30;8.50;;;7.50;;
3726;SDS011;1879;45.876;12.300;2023-04-03T02:06:59;8.70;;;7.80;;
3726;SDS011;1879;45.876;12.300;2023-04-03T02:09:28;8.80;;;7.90;;
3726;SDS011;1879;45.876;12.300;2023-04-03T02:11:57;12.95;;;7.25;;
3726;SDS011;1879;45.876;12.300;2023-04-03T02:14:25;8.67;;;7.67;;
3726;SDS011;1879;45.876;12.300;2023-04-03T02:16:54;8.47;;;7.30;;
3726;SDS011;1879;45.876;12.300;2023-04-03T02:19:22;7.90;;;7.20;;
3726;SDS011;1879;45.876;12.300;2023-04-03T02:21:51;8.37;;;7.50;;
3726;SDS011;1879;45.876;12.300;2023-04-03T02:24:20;8.23;;;7.37;;
3726;SDS011;1879;45.876;12.300;2023-04-03T02:26:52;8.47;;;7.57;;
3726;SDS011;1879;45.876;12.300;2023-04-03T02:29:21;7.93;;;7.07;;
3726;SDS011;1879;45.876;12.300;2023-04-03T02:31:50;8.07;;;7.18;;
3726;SDS011;1879;45.876;12.300;2023-04-03T02:34:20;7.45;;;6.68;;
3726;SDS011;1879;45.876;12.300;2023-04-03T02:36:49;8.53;;;7.67;;
3726;SDS011;1879;45.876;12.300;2023-04-03T02:39:18;10.50;;;7.43;;
3726;SDS011;1879;45.876;12.300;2023-04-03T02:41:48;10.00;;;7.17;;
3726;SDS011;1879;45.876;12.300;2023-04-03T02:44:17;8.07;;;7.00;;
3726;SDS011;1879;45.876;12.300;2023-04-03T02:46:46;7.07;;;6.37;;
3726;SDS011;1879;45.876;12.300;2023-04-03T02:49:14;6.13;;;5.63;;
3726;SDS011;1879;45.876;12.300;2023-04-03T02:51:42;5.78;;;5.28;;
3726;SDS011;1879;45.876;12.300;2023-04-03T02:54:11;6.43;;;5.57;;
3726;SDS011;1879;45.876;12.300;2023-04-03T02:56:42;8.10;;;5.60;;
3726;SDS011;1879;45.876;12.300;2023-04-03T02:59:10;6.73;;;5.47;;
3726;SDS011;1879;45.876;12.300;2023-04-03T03:01:38;6.03;;;5.50;;
3726;SDS011;1879;45.876;12.300;2023-04-03T03:04:06;6.03;;;4.87;;
3726;SDS011;1879;45.876;12.300;2023-04-03T03:06:34;6.20;;;5.60;;
3726;SDS011;1879;45.876;12.300;2023-04-03T03:09:03;8.40;;;5.50;;
3726;SDS011;1879;45.876;12.300;2023-04-03T03:11:33;6.17;;;5.20;;
3726;SDS011;1879;45.876;12.300;2023-04-03T03:14:03;6.37;;;5.50;;
3726;SDS011;1879;45.876;12.300;2023-04-03T03:16:31;7.20;;;6.27;;
3726;SDS011;1879;45.876;12.300;2023-04-03T03:19:00;6.70;;;6.10;;
3726;SDS011;1879;45.876;12.300;2023-04-03T03:21:28;8.90;;;6.43;;
3726;SDS011;1879;45.876;12.300;2023-04-03T03:23:57;7.63;;;6.90;;
3726;SDS011;1879;45.876;12.300;2023-04-03T03:26:26;8.73;;;6.93;;
3726;SDS011;1879;45.876;12.300;2023-04-03T03:28:55;9.00;;;7.20;;
3726;SDS011;1879;45.876;12.300;2023-04-03T03:31:25;8.10;;;7.28;;
3726;SDS011;1879;45.876;12.300;2023-04-03T03:33:54;8.50;;;7.70;;
3726;SDS011;1879;45.876;12.300;2023-04-03T03:36:22;9.77;;;7.87;;
3726;SDS011;1879;45.876;12.300;2023-04-03T03:38:50;8.82;;;7.93;;
3726;SDS011;1879;45.876;12.300;2023-04-03T03:41:19;8.53;;;7.63;;
3726;SDS011;1879;45.876;12.300;2023-04-03T03:43:47;7.90;;;6.60;;
3726;SDS011;1879;45.876;12.300;2023-04-03T03:46:15;8.33;;;6.90;;
3726;SDS011;1879;45.876;12.300;2023-04-03T03:48:45;7.97;;;6.40;;
3726;SDS011;1879;45.876;12.300;2023-04-03T03:51:14;7.97;;;7.17;;
3726;SDS011;1879;45.876;12.300;2023-04-03T03:53:43;7.60;;;6.80;;
3726;SDS011;1879;45.876;12.300;2023-04-03T03:56:11;11.60;;;7.47;;
3726;SDS011;1879;45.876;12.300;2023-04-03T03:58:42;8.33;;;6.90;;
3726;SDS011;1879;45.876;12.300;2023-04-03T04:01:10;11.30;;;7.27;;
3726;SDS011;1879;45.876;12.300;2023-04-03T04:03:39;8.77;;;7.87;;
3726;SDS011;1879;45.876;12.300;2023-04-03T04:06:10;13.03;;;7.40;;
3726;SDS011;1879;45.876;12.300;2023-04-03T04:08:38;9.73;;;7.20;;
3726;SDS011;1879;45.876;12.300;2023-04-03T04:11:08;8.07;;;7.27;;
3726;SDS011;1879;45.876;12.300;2023-04-03T04:13:36;10.30;;;7.33;;
3726;SDS011;1879;45.876;12.300;2023-04-03T04:16:05;8.27;;;6.67;;
3726;SDS011;1879;45.876;12.300;2023-04-03T04:18:34;7.77;;;6.97;;
3726;SDS011;1879;45.876;12.300;2023-04-03T04:21:02;7.90;;;7.10;;
3726;SDS011;1879;45.876;12.300;2023-04-03T04:23:32;12.73;;;7.40;;
3726;SDS011;1879;45.876;12.300;2023-04-03T04:26:01;8.43;;;5.60;;
3726;SDS011;1879;45.876;12.300;2023-04-03T04:28:30;6.90;;;5.03;;
3726;SDS011;1879;45.876;12.300;2023-04-03T04:30:57;6.57;;;5.97;;
3726;SDS011;1879;45.876;12.300;2023-04-03T04:33:25;7.07;;;6.37;;
3726;SDS011;1879;45.876;12.300;2023-04-03T04:35:53;6.90;;;6.20;;
3726;SDS011;1879;45.876;12.300;2023-04-03T04:38:22;6.40;;;5.80;;
3726;SDS011;1879;45.876;12.300;2023-04-03T04:40:52;8.30;;;6.77;;
3726;SDS011;1879;45.876;12.300;2023-04-03T04:43:21;6.60;;;6.00;;
3726;SDS011;1879;45.876;12.300;2023-04-03T04:45:59;6.95;;;5.95;;
3726;SDS011;1879;45.876;12.300;2023-04-03T04:48:29;6.67;;;5.97;;
3726;SDS011;1879;45.876;12.300;2023-04-03T04:50:57;6.33;;;5.60;;
3726;SDS011;1879;45.876;12.300;2023-04-03T04:53:27;8.73;;;6.27;;
3726;SDS011;1879;45.876;12.300;2023-04-03T04:55:57;6.67;;;5.80;;
3726;SDS011;1879;45.876;12.300;2023-04-03T04:58:25;6.50;;;5.10;;
3726;SDS011;1879;45.876;12.300;2023-04-03T05:00:58;5.67;;;5.17;;
3726;SDS011;1879;45.876;12.300;2023-04-03T05:03:27;6.50;;;5.03;;
3726;SDS011;1879;45.876;12.300;2023-04-03T05:05:54;5.85;;;5.28;;
3726;SDS011;1879;45.876;12.300;2023-04-03T05:08:24;5.80;;;5.30;;
3726;SDS011;1879;45.876;12.300;2023-04-03T05:10:52;8.33;;;5.80;;
3726;SDS011;1879;45.876;12.300;2023-04-03T05:13:23;6.63;;;5.20;;
3726;SDS011;1879;45.876;12.300;2023-04-03T05:15:51;5.93;;;5.43;;
3726;SDS011;1879;45.876;12.300;2023-04-03T05:18:20;7.70;;;6.97;;
3726;SDS011;1879;45.876;12.300;2023-04-03T05:20:49;9.13;;;7.90;;
3726;SDS011;1879;45.876;12.300;2023-04-03T05:23:18;8.67;;;7.17;;
3726;SDS011;1879;45.876;12.300;2023-04-03T05:25:46;9.30;;;7.37;;
3726;SDS011;1879;45.876;12.300;2023-04-03T05:28:15;8.33;;;7.53;;
3726;SDS011;1879;45.876;12.300;2023-04-03T05:30:46;9.20;;;8.33;;
3726;SDS011;1879;45.876;12.300;2023-04-03T05:33:21;9.20;;;8.30;;
3726;SDS011;1879;45.876;12.300;2023-04-03T05:35:54;10.83;;;8.70;;
3726;SDS011;1879;45.876;12.300;2023-04-03T05:38:23;20.33;;;12.43;;
3726;SDS011;1879;45.876;12.300;2023-04-03T05:40:51;11.27;;;9.97;;
3726;SDS011;1879;45.876;12.300;2023-04-03T05:43:20;10.70;;;9.27;;
3726;SDS011;1879;45.876;12.300;2023-04-03T05:45:50;10.20;;;8.53;;
3726;SDS011;1879;45.876;12.300;2023-04-03T05:48:19;8.50;;;7.70;;
3726;SDS011;1879;45.876;12.300;2023-04-03T05:50:48;8.10;;;7.37;;
3726;SDS011;1879;45.876;12.300;2023-04-03T05:53:17;8.73;;;6.40;;
3726;SDS011;1879;45.876;12.300;2023-04-03T05:55:50;7.50;;;6.80;;
3726;SDS011;1879;45.876;12.300;2023-04-03T05:58:19;7.10;;;6.47;;
3726;SDS011;1879;45.876;12.300;2023-04-03T06:00:47;7.13;;;6.43;;
3726;SDS011;1879;45.876;12.300;2023-04-03T06:03:18;8.57;;;7.68;;
3726;SDS011;1879;45.876;12.300;2023-04-03T06:05:46;8.80;;;7.63;;
3726;SDS011;1879;45.876;12.300;2023-04-03T06:08:14;10.17;;;9.00;;
3726;SDS011;1879;45.876;12.300;2023-04-03T06:10:42;11.63;;;8.80;;
3726;SDS011;1879;45.876;12.300;2023-04-03T06:13:12;10.07;;;9.07;;
3726;SDS011;1879;45.876;12.300;2023-04-03T06:15:41;10.37;;;9.13;;
3726;SDS011;1879;45.876;12.300;2023-04-03T06:18:11;12.47;;;10.47;;
3726;SDS011;1879;45.876;12.300;2023-04-03T06:20:40;8.73;;;7.93;;
3726;SDS011;1879;45.876;12.300;2023-04-03T06:23:09;10.63;;;9.40;;
3726;SDS011;1879;45.876;12.300;2023-04-03T06:25:37;9.17;;;8.27;;
3726;SDS011;1879;45.876;12.300;2023-04-03T06:28:07;8.80;;;8.00;;
3726;SDS011;1879;45.876;12.300;2023-04-03T06:30:36;9.87;;;8.70;;
3726;SDS011;1879;45.876;12.300;2023-04-03T06:33:04;9.17;;;8.27;;
3726;SDS011;1879;45.876;12.300;2023-04-03T06:35:35;8.60;;;7.80;;
3726;SDS011;1879;45.876;12.300;2023-04-03T06:38:04;9.77;;;8.88;;
3726;SDS011;1879;45.876;12.300;2023-04-03T06:40:35;8.60;;;7.70;;
3726;SDS011;1879;45.876;12.300;2023-04-03T06:43:04;8.93;;;7.27;;
3726;SDS011;1879;45.876;12.300;2023-04-03T06:45:32;7.17;;;6.50;;
3726;SDS011;1879;45.876;12.300;2023-04-03T06:48:01;8.03;;;6.47;;
3726;SDS011;1879;45.876;12.300;2023-04-03T06:50:31;7.83;;;6.73;;
3726;SDS011;1879;45.876;12.300;2023-04-03T06:53:01;7.37;;;6.63;;
3726;SDS011;1879;45.876;12.300;2023-04-03T06:55:29;7.87;;;6.83;;
3726;SDS011;1879;45.876;12.300;2023-04-03T06:57:58;7.50;;;6.30;;
3726;SDS011;1879;45.876;12.300;2023-04-03T07:00:28;7.03;;;6.33;;
3726;SDS011;1879;45.876;12.300;2023-04-03T07:02:56;8.20;;;7.40;;
3726;SDS011;1879;45.876;12.300;2023-04-03T07:05:25;10.15;;;7.45;;
3726;SDS011;1879;45.876;12.300;2023-04-03T07:07:54;7.20;;;6.60;;
3726;SDS011;1879;45.876;12.300;2023-04-03T07:10:24;8.20;;;6.27;;
3726;SDS011;1879;45.876;12.300;2023-04-03T07:12:53;9.10;;;6.00;;
3726;SDS011;1879;45.876;12.300;2023-04-03T07:15:22;7.27;;;6.67;;
3726;SDS011;1879;45.876;12.300;2023-04-03T07:17:49;6.50;;;5.47;;
3726;SDS011;1879;45.876;12.300;2023-04-03T07:20:18;5.93;;;5.37;;
3726;SDS011;1879;45.876;12.300;2023-04-03T07:22:47;6.23;;;5.73;;
3726;SDS011;1879;45.876;12.300;2023-04-03T07:25:16;6.30;;;5.77;;
3726;SDS011;1879;45.876;12.300;2023-04-03T07:27:46;5.80;;;5.30;;
3726;SDS011;1879;45.876;12.300;2023-04-03T07:30:15;6.75;;;6.05;;
3726;SDS011;1879;45.876;12.300;2023-04-03T07:32:44;6.00;;;5.37;;
3726;SDS011;1879;45.876;12.300;2023-04-03T07:35:13;5.60;;;4.87;;
3726;SDS011;1879;45.876;12.300;2023-04-03T07:37:42;5.23;;;4.70;;
3726;SDS011;1879;45.876;12.300;2023-04-03T07:40:12;5.37;;;4.97;;
3726;SDS011;1879;45.876;12.300;2023-04-03T07:42:41;4.73;;;4.33;;
3726;SDS011;1879;45.876;12.300;2023-04-03T07:45:12;4.63;;;3.67;;
3726;SDS011;1879;45.876;12.300;2023-04-03T07:47:40;4.47;;;4.07;;
3726;SDS011;1879;45.876;12.300;2023-04-03T07:50:09;5.40;;;4.93;;
3726;SDS011;1879;45.876;12.300;2023-04-03T07:52:38;5.07;;;4.67;;
3726;SDS011;1879;45.876;12.300;2023-04-03T07:55:07;4.53;;;4.10;;
3726;SDS011;1879;45.876;12.300;2023-04-03T07:57:37;4.13;;;3.83;;
3726;SDS011;1879;45.876;12.300;2023-04-03T08:00:06;4.70;;;4.20;;
3726;SDS011;1879;45.876;12.300;2023-04-03T08:02:37;5.97;;;4.50;;
3726;SDS011;1879;45.876;12.300;2023-04-03T08:05:06;4.70;;;4.30;;
3726;SDS011;1879;45.876;12.300;2023-04-03T08:07:36;5.20;;;4.67;;
3726;SDS011;1879;45.876;12.300;2023-04-03T08:10:05;5.63;;;5.23;;
3726;SDS011;1879;45.876;12.300;2023-04-03T08:12:35;5.50;;;5.00;;
3726;SDS011;1879;45.876;12.300;2023-04-03T08:15:04;6.30;;;5.00;;
3726;SDS011;1879;45.876;12.300;2023-04-03T08:17:34;5.57;;;5.07;;
3726;SDS011;1879;45.876;12.300;2023-04-03T08:20:05;7.23;;;5.03;;
3726;SDS011;1879;45.876;12.300;2023-04-03T08:22:34;5.10;;;4.70;;
3726;SDS011;1879;45.876;12.300;2023-04-03T08:25:03;4.13;;;3.73;;
3726;SDS011;1879;45.876;12.300;2023-04-03T08:27:32;4.57;;;4.27;;
3726;SDS011;1879;45.876;12.300;2023-04-03T08:30:00;4.00;;;3.70;;
3726;SDS011;1879;45.876;12.300;2023-04-03T08:32:30;3.53;;;3.23;;
3726;SDS011;1879;45.876;12.300;2023-04-03T08:35:00;4.00;;;3.70;;
3726;SDS011;1879;45.876;12.300;2023-04-03T08:37:30;3.70;;;3.40;;
3726;SDS011;1879;45.876;12.300;2023-04-03T08:40:01;5.73;;;3.80;;
3726;SDS011;1879;45.876;12.300;2023-04-03T08:42:35;4.13;;;3.83;;
3726;SDS011;1879;45.876;12.300;2023-04-03T08:45:10;4.43;;;4.13;;
3726;SDS011;1879;45.876;12.300;2023-04-03T08:47:43;5.57;;;4.00;;
3726;SDS011;1879;45.876;12.300;2023-04-03T08:50:13;4.00;;;3.60;;
3726;SDS011;1879;45.876;12.300;2023-04-03T08:52:44;5.30;;;3.70;;
3726;SDS011;1879;45.876;12.300;2023-04-03T08:55:17;4.32;;;3.90;;
3726;SDS011;1879;45.876;12.300;2023-04-03T08:57:51;4.68;;;4.07;;
3726;SDS011;1879;45.876;12.300;2023-04-03T09:00:26;4.73;;;4.07;;
3726;SDS011;1879;45.876;12.300;2023-04-03T09:02:56;3.90;;;3.47;;
3726;SDS011;1879;45.876;12.300;2023-04-03T09:05:27;4.45;;;4.05;;
3726;SDS011;1879;45.876;12.300;2023-04-03T09:08:06;4.13;;;3.73;;
3726;SDS011;1879;45.876;12.300;2023-04-03T09:10:40;4.37;;;4.00;;
3726;SDS011;1879;45.876;12.300;2023-04-03T09:13:10;4.10;;;3.80;;
3726;SDS011;1879;45.876;12.300;2023-04-03T09:15:45;4.70;;;4.13;;
3726;SDS011;1879;45.876;12.300;2023-04-03T09:18:13;3.77;;;3.47;;
3726;SDS011;1879;45.876;12.300;2023-04-03T09:20:46;4.23;;;3.83;;
3726;SDS011;1879;45.876;12.300;2023-04-03T09:23:22;3.93;;;3.63;;
3726;SDS011;1879;45.876;12.300;2023-04-03T09:25:56;8.60;;;4.33;;
3726;SDS011;1879;45.876;12.300;2023-04-03T09:28:29;6.23;;;4.43;;
3726;SDS011;1879;45.876;12.300;2023-04-03T09:30:58;4.60;;;4.20;;
3726;SDS011;1879;45.876;12.300;2023-04-03T09:33:26;4.87;;;4.47;;
3726;SDS011;1879;45.876;12.300;2023-04-03T09:35:55;4.57;;;4.20;;
3726;SDS011;1879;45.876;12.300;2023-04-03T09:38:26;6.20;;;5.60;;
3726;SDS011;1879;45.876;12.300;2023-04-03T09:41:02;5.40;;;5.00;;
3726;SDS011;1879;45.876;12.300;2023-04-03T09:43:33;6.37;;;5.30;;
3726;SDS011;1879;45.876;12.300;2023-04-03T09:48:49;4.73;;;4.33;;
3726;SDS011;1879;45.876;12.300;2023-04-03T09:51:17;5.73;;;5.20;;
3726;SDS011;1879;45.876;12.300;2023-04-03T09:53:45;6.63;;;4.90;;
3726;SDS011;1879;45.876;12.300;2023-04-03T09:56:19;4.97;;;4.57;;
3726;SDS011;1879;45.876;12.300;2023-04-03T09:58:49;5.60;;;5.10;;
3726;SDS011;1879;45.876;12.300;2023-04-03T10:01:26;5.20;;;4.70;;
3726;SDS011;1879;45.876;12.300;2023-04-03T10:04:05;4.73;;;4.30;;
3726;SDS011;1879;45.876;12.300;2023-04-03T10:06:35;6.20;;;5.60;;
3726;SDS011;1879;45.876;12.300;2023-04-03T10:09:14;5.53;;;5.00;;
3726;SDS011;1879;45.876;12.300;2023-04-03T10:14:31;5.60;;;5.10;;
3726;SDS011;1879;45.876;12.300;2023-04-03T10:17:00;5.40;;;4.90;;
3726;SDS011;1879;45.876;12.300;2023-04-03T10:19:36;5.30;;;4.80;;
3726;SDS011;1879;45.876;12.300;2023-04-03T10:22:18;5.90;;;5.30;;
3726;SDS011;1879;45.876;12.300;2023-04-03T10:24:54;5.67;;;5.20;;
3726;SDS011;1879;45.876;12.300;2023-04-03T10:27:35;5.30;;;4.90;;
3726;SDS011;1879;45.876;12.300;2023-04-03T10:30:17;5.40;;;5.00;;
3726;SDS011;1879;45.876;12.300;2023-04-03T10:32:53;5.13;;;4.73;;
3726;SDS011;1879;45.876;12.300;2023-04-03T10:35:27;5.13;;;4.73;;
3726;SDS011;1879;45.876;12.300;2023-04-03T10:38:04;5.00;;;4.60;;
3726;SDS011;1879;45.876;12.300;2023-04-03T10:40:43;5.17;;;4.77;;
3726;SDS011;1879;45.876;12.300;2023-04-03T10:43:15;4.90;;;4.60;;
3726;SDS011;1879;45.876;12.300;2023-04-03T10:45:50;4.63;;;4.23;;
3726;SDS011;1879;45.876;12.300;2023-04-03T10:48:26;5.00;;;4.50;;
3726;SDS011;1879;45.876;12.300;2023-04-03T10:51:05;5.50;;;4.93;;
3726;SDS011;1879;45.876;12.300;2023-04-03T10:53:41;4.87;;;4.47;;
3726;SDS011;1879;45.876;12.300;2023-04-03T10:56:17;4.75;;;4.35;;
3726;SDS011;1879;45.876;12.300;2023-04-03T10:58:49;5.10;;;4.70;;
3726;SDS011;1879;45.876;12.300;2023-04-03T11:01:21;4.50;;;4.17;;
3726;SDS011;1879;45.876;12.300;2023-04-03T11:03:54;6.00;;;4.40;;
3726;SDS011;1879;45.876;12.300;2023-04-03T11:06:24;5.00;;;4.60;;
3726;SDS011;1879;45.876;12.300;2023-04-03T11:08:59;5.20;;;4.53;;
3726;SDS011;1879;45.876;12.300;2023-04-03T11:11:33;4.97;;;4.53;;
3726;SDS011;1879;45.876;12.300;2023-04-03T11:14:05;4.25;;;3.85;;
3726;SDS011;1879;45.876;12.300;2023-04-03T11:16:45;4.40;;;4.00;;
3726;SDS011;1879;45.876;12.300;2023-04-03T11:19:15;5.27;;;4.60;;
3726;SDS011;1879;45.876;12.300;2023-04-03T11:21:50;6.83;;;5.03;;
3726;SDS011;1879;45.876;12.300;2023-04-03T11:24:22;5.10;;;4.32;;
3726;SDS011;1879;45.876;12.300;2023-04-03T11:26:53;5.40;;;5.00;;
3726;SDS011;1879;45.876;12.300;2023-04-03T11:29:22;5.03;;;4.63;;
3726;SDS011;1879;45.876;12.300;2023-04-03T11:31:58;3.87;;;3.57;;
3726;SDS011;1879;45.876;12.300;2023-04-03T11:34:36;3.90;;;3.60;;
3726;SDS011;1879;45.876;12.300;2023-04-03T11:37:11;4.20;;;3.90;;
3726;SDS011;1879;45.876;12.300;2023-04-03T11:39:48;4.90;;;4.50;;
3726;SDS011;1879;45.876;12.300;2023-04-03T11:42:25;4.60;;;4.30;;
3726;SDS011;1879;45.876;12.300;2023-04-03T11:45:21;4.20;;;3.90;;
3726;SDS011;1879;45.876;12.300;2023-04-03T11:47:58;6.00;;;4.53;;
3726;SDS011;1879;45.876;12.300;2023-04-03T11:50:39;4.90;;;4.50;;
3726;SDS011;1879;45.876;12.300;2023-04-03T11:59:21;3.40;;;3.20;;
3726;SDS011;1879;45.876;12.300;2023-04-03T12:01:54;4.30;;;3.90;;
3726;SDS011;1879;45.876;12.300;2023-04-03T12:04:22;5.23;;;3.93;;
3726;SDS011;1879;45.876;12.300;2023-04-03T12:06:52;3.60;;;3.23;;
3726;SDS011;1879;45.876;12.300;2023-04-03T12:09:29;5.80;;;3.23;;
3726;SDS011;1879;45.876;12.300;2023-04-03T12:12:01;4.77;;;3.60;;
3726;SDS011;1879;45.876;12.300;2023-04-03T12:14:44;3.25;;;3.05;;
3726;SDS011;1879;45.876;12.300;2023-04-03T12:17:16;3.60;;;3.23;;
3726;SDS011;1879;45.876;12.300;2023-04-03T12:19:49;5.90;;;3.43;;
3726;SDS011;1879;45.876;12.300;2023-04-03T12:22:17;3.87;;;3.57;;
3726;SDS011;1879;45.876;12.300;2023-04-03T12:24:46;3.42;;;3.15;;
3726;SDS011;1879;45.876;12.300;2023-04-03T12:30:11;4.80;;;2.63;;
3726;SDS011;1879;45.876;12.300;2023-04-03T12:32:46;2.97;;;2.77;;
3726;SDS011;1879;45.876;12.300;2023-04-03T12:35:24;2.70;;;2.50;;
3726;SDS011;1879;45.876;12.300;2023-04-03T12:41:04;2.27;;;2.17;;
3726;SDS011;1879;45.876;12.300;2023-04-03T12:43:49;3.17;;;2.97;;
3726;SDS011;1879;45.876;12.300;2023-04-03T12:46:24;3.20;;;2.50;;
3726;SDS011;1879;45.876;12.300;2023-04-03T12:48:59;3.57;;;3.27;;
3726;SDS011;1879;45.876;12.300;2023-04-03T12:51:27;2.80;;;2.40;;
3726;SDS011;1879;45.876;12.300;2023-04-03T12:54:01;2.63;;;2.47;;
3726;SDS011;1879;45.876;12.300;2023-04-03T12:56:38;2.30;;;2.20;;
3726;SDS011;1879;45.876;12.300;2023-04-03T12:59:15;2.70;;;2.50;;
3726;SDS011;1879;45.876;12.300;2023-04-03T13:01:54;2.60;;;2.30;;
3726;SDS011;1879;45.876;12.300;2023-04-03T13:04:21;2.50;;;2.30;;
3726;SDS011;1879;45.876;12.300;2023-04-03T13:06:48;3.00;;;2.63;;
3726;SDS011;1879;45.876;12.300;2023-04-03T13:09:19;3.00;;;2.80;;
3726;SDS011;1879;45.876;12.300;2023-04-03T13:11:48;2.30;;;2.20;;
3726;SDS011;1879;45.876;12.300;2023-04-03T13:14:19;2.70;;;2.50;;
3726;SDS011;1879;45.876;12.300;2023-04-03T13:16:56;3.10;;;2.90;;
3726;SDS011;1879;45.876;12.300;2023-04-03T13:19:24;2.83;;;2.63;;
3726;SDS011;1879;45.876;12.300;2023-04-03T13:21:54;2.30;;;2.20;;
3726;SDS011;1879;45.876;12.300;2023-04-03T13:24:26;2.63;;;2.43;;
3726;SDS011;1879;45.876;12.300;2023-04-03T13:26:55;3.50;;;3.30;;
3726;SDS011;1879;45.876;12.300;2023-04-03T13:29:23;2.78;;;2.63;;
3726;SDS011;1879;45.876;12.300;2023-04-03T13:31:53;3.10;;;2.80;;
3726;SDS011;1879;45.876;12.300;2023-04-03T13:34:24;2.47;;;2.27;;
3726;SDS011;1879;45.876;12.300;2023-04-03T13:36:56;2.33;;;2.20;;
3726;SDS011;1879;45.876;12.300;2023-04-03T13:39:26;2.77;;;2.57;;
3726;SDS011;1879;45.876;12.300;2023-04-03T13:41:54;2.07;;;1.97;;
3726;SDS011;1879;45.876;12.300;2023-04-03T13:44:26;2.60;;;2.50;;
3726;SDS011;1879;45.876;12.300;2023-04-03T13:46:57;2.67;;;2.47;;
3726;SDS011;1879;45.876;12.300;2023-04-03T13:49:30;3.50;;;2.90;;
3726;SDS011;1879;45.876;12.300;2023-04-03T13:52:01;2.63;;;2.43;;
3726;SDS011;1879;45.876;12.300;2023-04-03T13:54:31;2.87;;;2.67;;
3726;SDS011;1879;45.876;12.300;2023-04-03T13:57:02;2.10;;;1.90;;
3726;SDS011;1879;45.876;12.300;2023-04-03T13:59:36;3.73;;;2.50;;
3726;SDS011;1879;45.876;12.300;2023-04-03T14:02:12;2.50;;;2.30;;
3726;SDS011;1879;45.876;12.300;2023-04-03T14:04:49;2.20;;;2.00;;
3726;SDS011;1879;45.876;12.300;2023-04-03T14:07:23;2.28;;;2.15;;
3726;SDS011;1879;45.876;12.300;2023-04-03T14:09:51;2.60;;;2.40;;
3726;SDS011;1879;45.876;12.300;2023-04-03T14:12:21;2.80;;;2.37;;
3726;SDS011;1879;45.876;12.300;2023-04-03T14:14:52;3.00;;;2.60;;
3726;SDS011;1879;45.876;12.300;2023-04-03T14:17:23;2.37;;;2.20;;
3726;SDS011;1879;45.876;12.300;2023-04-03T14:19:52;2.30;;;2.20;;
3726;SDS011;1879;45.876;12.300;2023-04-03T14:22:20;1.70;;;1.60;;
3726;SDS011;1879;45.876;12.300;2023-04-03T14:24:50;3.83;;;1.80;;
3726;SDS011;1879;45.876;12.300;2023-04-03T14:27:19;2.33;;;1.80;;
3726;SDS011;1879;45.876;12.300;2023-04-03T14:29:48;2.27;;;2.07;;
3726;SDS011;1879;45.876;12.300;2023-04-03T14:32:17;3.00;;;1.87;;
3726;SDS011;1879;45.876;12.300;2023-04-03T14:34:47;3.73;;;1.93;;
3726;SDS011;1879;45.876;12.300;2023-04-03T14:37:15;2.85;;;1.67;;
3726;SDS011;1879;45.876;12.300;2023-04-03T14:39:43;2.20;;;2.00;;
3726;SDS011;1879;45.876;12.300;2023-04-03T14:42:14;3.77;;;1.70;;
3726;SDS011;1879;45.876;12.300;2023-04-03T14:44:43;1.83;;;1.60;;
3726;SDS011;1879;45.876;12.300;2023-04-03T14:47:11;2.83;;;1.90;;
3726;SDS011;1879;45.876;12.300;2023-04-03T14:49:39;2.00;;;1.70;;
3726;SDS011;1879;45.876;12.300;2023-04-03T14:52:09;1.85;;;1.67;;
3726;SDS011;1879;45.876;12.300;2023-04-03T14:54:44;2.30;;;1.70;;
3726;SDS011;1879;45.876;12.300;2023-04-03T14:57:11;3.17;;;1.77;;
3726;SDS011;1879;45.876;12.300;2023-04-03T14:59:40;5.40;;;2.07;;
3726;SDS011;1879;45.876;12.300;2023-04-03T15:02:18;2.73;;;1.70;;
3726;SDS011;1879;45.876;12.300;2023-04-03T15:04:51;3.38;;;1.48;;
3726;SDS011;1879;45.876;12.300;2023-04-03T15:07:20;4.80;;;1.63;;
3726;SDS011;1879;45.876;12.300;2023-04-03T15:09:47;1.63;;;1.53;;
3726;SDS011;1879;45.876;12.300;2023-04-03T15:12:14;5.73;;;1.77;;
3726;SDS011;1879;45.876;12.300;2023-04-03T15:14:41;3.30;;;1.65;;
3726;SDS011;1879;45.876;12.300;2023-04-03T15:17:08;3.15;;;1.67;;
3726;SDS011;1879;45.876;12.300;2023-04-03T15:19:41;2.60;;;1.83;;
3726;SDS011;1879;45.876;12.300;2023-04-03T15:22:09;2.60;;;1.43;;
3726;SDS011;1879;45.876;12.300;2023-04-03T15:24:45;2.30;;;1.93;;
3726;SDS011;1879;45.876;12.300;2023-04-03T15:27:12;4.47;;;1.55;;
3726;SDS011;1879;45.876;12.300;2023-04-03T15:29:40;3.13;;;1.87;;
3726;SDS011;1879;45.876;12.300;2023-04-03T15:32:08;5.70;;;2.03;;
3726;SDS011;1879;45.876;12.300;2023-04-03T15:34:36;5.50;;;2.00;;
3726;SDS011;1879;45.876;12.300;2023-04-03T15:37:03;5.60;;;1.80;;
3726;SDS011;1879;45.876;12.300;2023-04-03T15:39:32;7.00;;;1.97;;